createdAt,value
2019-03-09T00:00:12.292Z,7.30
2019-03-09T00:01:21.817Z,7.40
2019-03-09T00:02:26.003Z,7.40
2019-03-09T00:03:30.436Z,7.30
2019-03-09T00:04:34.714Z,7.30
2019-03-09T00:05:38.877Z,7.30
2019-03-09T00:06:43.083Z,7.20
2019-03-09T00:07:47.462Z,7.30
2019-03-09T00:08:51.648Z,7.30
2019-03-09T00:09:55.935Z,7.40
2019-03-09T00:11:00.113Z,7.40
2019-03-09T00:12:04.360Z,7.40
2019-03-09T00:13:08.719Z,7.30
2019-03-09T00:14:13.066Z,7.30
2019-03-09T00:15:17.369Z,7.40
2019-03-09T00:16:21.670Z,7.40
2019-03-09T00:17:26.275Z,7.40
2019-03-09T00:18:30.823Z,7.40
2019-03-09T00:19:35.163Z,7.40
2019-03-09T00:20:39.472Z,7.40
2019-03-09T00:21:43.656Z,7.40
2019-03-09T00:22:51.911Z,7.30
2019-03-09T00:24:14.090Z,7.30
2019-03-09T00:25:29.446Z,7.30
2019-03-09T00:26:47.291Z,7.40
2019-03-09T00:28:03.904Z,7.30
2019-03-09T00:29:33.042Z,7.30
2019-03-09T00:30:59.145Z,7.30
2019-03-09T00:32:06.931Z,7.40
2019-03-09T00:33:11.243Z,7.40
2019-03-09T00:34:15.527Z,7.30
2019-03-09T00:35:19.752Z,7.30
2019-03-09T00:36:24.008Z,7.30
2019-03-09T00:37:28.288Z,7.20
2019-03-09T00:38:32.520Z,7.30
2019-03-09T00:39:36.825Z,7.30
2019-03-09T00:40:41.172Z,7.30
2019-03-09T00:41:45.456Z,7.20
2019-03-09T00:42:49.622Z,7.20
2019-03-09T00:43:53.944Z,7.30
2019-03-09T00:44:58.149Z,7.20
2019-03-09T00:46:02.282Z,7.30
2019-03-09T00:47:06.476Z,7.30
2019-03-09T00:48:10.628Z,7.40
2019-03-09T00:49:14.910Z,7.40
2019-03-09T00:50:19.381Z,7.30
2019-03-09T00:51:24.089Z,7.30
2019-03-09T00:52:28.408Z,7.30
2019-03-09T00:53:32.691Z,7.30
2019-03-09T00:54:37.121Z,7.30
2019-03-09T00:55:41.277Z,7.30
2019-03-09T00:56:45.590Z,7.30
2019-03-09T00:57:49.768Z,7.20
2019-03-09T00:58:54.090Z,7.20
2019-03-09T00:59:59.231Z,7.20
2019-03-09T01:01:03.509Z,7.10
2019-03-09T01:02:07.856Z,7.10
2019-03-09T01:03:12.116Z,7.20
2019-03-09T01:04:16.394Z,7.20
2019-03-09T01:05:20.692Z,7.20
2019-03-09T01:06:24.967Z,7.30
2019-03-09T01:07:29.173Z,7.30
2019-03-09T01:08:33.343Z,7.20
2019-03-09T01:09:37.622Z,7.20
2019-03-09T01:10:41.787Z,7.20
2019-03-09T01:11:46.047Z,7.30
2019-03-09T01:12:50.203Z,7.30
2019-03-09T01:13:54.820Z,7.30
2019-03-09T01:14:59.168Z,7.30
2019-03-09T01:16:03.409Z,7.40
2019-03-09T01:17:07.727Z,7.30
2019-03-09T01:18:12.282Z,7.30
2019-03-09T01:19:16.583Z,7.30
2019-03-09T01:20:20.886Z,7.30
2019-03-09T01:21:25.153Z,7.30
2019-03-09T01:22:29.367Z,7.30
2019-03-09T01:23:33.563Z,7.30
2019-03-09T01:24:37.872Z,7.30
2019-03-09T01:25:42.033Z,7.40
2019-03-09T01:26:46.261Z,7.30
2019-03-09T01:27:50.586Z,7.30
2019-03-09T01:28:54.831Z,7.30
2019-03-09T01:29:58.969Z,7.30
2019-03-09T01:31:03.125Z,7.30
2019-03-09T01:32:07.385Z,7.30
2019-03-09T01:33:11.693Z,7.30
2019-03-09T01:34:15.993Z,7.30
2019-03-09T01:35:20.199Z,7.40
2019-03-09T01:36:24.571Z,7.30
2019-03-09T01:37:28.867Z,7.30
2019-03-09T01:38:33.115Z,7.30
2019-03-09T01:39:37.413Z,7.30
2019-03-09T01:40:41.669Z,7.30
2019-03-09T01:41:45.790Z,7.30
2019-03-09T01:42:50.097Z,7.20
2019-03-09T01:43:54.297Z,7.20
2019-03-09T01:44:58.469Z,7.20
2019-03-09T01:46:02.752Z,7.20
2019-03-09T01:47:07.158Z,7.20
2019-03-09T01:48:11.534Z,7.20
2019-03-09T01:49:15.736Z,7.20
2019-03-09T01:50:20.101Z,7.30
2019-03-09T01:51:24.459Z,7.30
2019-03-09T01:52:28.849Z,7.20
2019-03-09T01:53:36.651Z,7.20
2019-03-09T01:54:39.142Z,7.10
2019-03-09T01:55:43.754Z,7.10
2019-03-09T01:56:48.043Z,7.20
2019-03-09T01:57:52.397Z,7.20
2019-03-09T01:58:56.700Z,7.20
2019-03-09T02:00:00.985Z,7.20
2019-03-09T02:01:05.505Z,7.20
2019-03-09T02:02:09.755Z,7.20
2019-03-09T02:03:14.063Z,7.20
2019-03-09T02:04:18.234Z,7.20
2019-03-09T02:05:22.471Z,7.20
2019-03-09T02:06:26.661Z,7.20
2019-03-09T02:07:30.969Z,7.30
2019-03-09T02:08:35.127Z,7.30
2019-03-09T02:09:39.312Z,7.30
2019-03-09T02:10:43.523Z,7.20
2019-03-09T02:11:47.860Z,7.20
2019-03-09T02:12:51.993Z,7.10
2019-03-09T02:13:56.285Z,7.10
2019-03-09T02:15:00.577Z,7.10
2019-03-09T02:16:04.875Z,7.10
2019-03-09T02:17:09.271Z,7.10
2019-03-09T02:18:13.396Z,7.10
2019-03-09T02:19:17.740Z,7.20
2019-03-09T02:20:22.509Z,7.20
2019-03-09T02:21:26.732Z,7.30
2019-03-09T02:22:30.917Z,7.30
2019-03-09T02:23:35.120Z,7.20
2019-03-09T02:24:39.432Z,7.10
2019-03-09T02:25:43.832Z,7.10
2019-03-09T02:26:48.134Z,7.10
2019-03-09T02:27:52.354Z,7.10
2019-03-09T02:28:56.595Z,7.20
2019-03-09T02:30:00.908Z,7.10
2019-03-09T02:31:05.072Z,7.10
2019-03-09T02:32:09.278Z,7.10
2019-03-09T02:33:13.664Z,7.10
2019-03-09T02:34:18.097Z,7.20
2019-03-09T02:35:22.265Z,7.20
2019-03-09T02:36:26.536Z,7.10
2019-03-09T02:37:30.829Z,7.20
2019-03-09T02:38:59.928Z,7.20
2019-03-09T02:40:29.407Z,7.10
2019-03-09T02:41:33.553Z,7.00
2019-03-09T02:42:37.846Z,7.00
2019-03-09T02:43:42.001Z,6.90
2019-03-09T02:44:46.282Z,6.80
2019-03-09T02:45:51.008Z,6.70
2019-03-09T02:46:55.307Z,6.80
2019-03-09T02:47:59.633Z,6.80
2019-03-09T02:49:03.876Z,6.90
2019-03-09T02:50:09.495Z,7.00
2019-03-09T02:51:13.765Z,7.00
2019-03-09T02:52:18.012Z,6.90
2019-03-09T02:53:22.218Z,6.90
2019-03-09T02:54:26.523Z,6.90
2019-03-09T02:55:30.798Z,6.90
2019-03-09T02:56:35.014Z,7.10
2019-03-09T02:57:39.211Z,7.10
2019-03-09T02:58:43.585Z,7.10
2019-03-09T02:59:48.474Z,7.10
2019-03-09T03:01:00.901Z,7.10
2019-03-09T03:02:21.706Z,7.10
2019-03-09T03:03:26.045Z,7.10
2019-03-09T03:04:30.291Z,7.20
2019-03-09T03:05:34.580Z,7.20
2019-03-09T03:06:38.787Z,7.20
2019-03-09T03:07:43.175Z,7.20
2019-03-09T03:08:47.534Z,7.20
2019-03-09T03:09:51.796Z,7.20
2019-03-09T03:10:56.053Z,7.20
2019-03-09T03:12:00.406Z,7.20
2019-03-09T03:13:04.843Z,7.20
2019-03-09T03:14:08.947Z,7.20
2019-03-09T03:15:14.734Z,7.30
2019-03-09T03:16:19.001Z,7.30
2019-03-09T03:17:23.372Z,7.30
2019-03-09T03:18:27.741Z,7.30
2019-03-09T03:19:32.058Z,7.30
2019-03-09T03:20:36.289Z,7.30
2019-03-09T03:21:40.613Z,7.20
2019-03-09T03:22:44.902Z,7.30
2019-03-09T03:23:49.250Z,7.30
2019-03-09T03:24:53.452Z,7.30
2019-03-09T03:25:57.753Z,7.30
2019-03-09T03:27:02.051Z,7.40
2019-03-09T03:28:06.282Z,7.30
2019-03-09T03:29:10.407Z,7.30
2019-03-09T03:30:14.656Z,7.30
2019-03-09T03:31:18.924Z,7.30
2019-03-09T03:32:23.938Z,7.30
2019-03-09T03:33:28.120Z,7.20
2019-03-09T03:34:32.431Z,7.20
2019-03-09T03:35:36.676Z,7.10
2019-03-09T03:36:41.080Z,7.10
2019-03-09T03:37:45.380Z,7.00
2019-03-09T03:38:49.656Z,7.00
2019-03-09T03:39:54.277Z,7.00
2019-03-09T03:40:58.633Z,7.00
2019-03-09T03:42:02.808Z,7.00
2019-03-09T03:43:07.073Z,7.00
2019-03-09T03:44:11.411Z,7.00
2019-03-09T03:45:16.002Z,7.10
2019-03-09T03:46:20.344Z,7.10
2019-03-09T03:47:24.505Z,7.10
2019-03-09T03:48:28.831Z,7.20
2019-03-09T03:49:33.266Z,7.10
2019-03-09T03:50:37.595Z,7.10
2019-03-09T03:51:41.833Z,7.10
2019-03-09T03:52:46.048Z,7.10
2019-03-09T03:53:50.420Z,7.10
2019-03-09T03:54:54.625Z,7.20
2019-03-09T03:55:58.960Z,7.20
2019-03-09T03:57:03.220Z,7.20
2019-03-09T03:58:07.425Z,7.20
2019-03-09T03:59:11.859Z,7.20
2019-03-09T04:00:16.330Z,7.20
2019-03-09T04:01:20.549Z,7.20
2019-03-09T04:02:24.846Z,7.20
2019-03-09T04:03:29.239Z,7.20
2019-03-09T04:04:33.515Z,7.20
2019-03-09T04:05:37.812Z,7.20
2019-03-09T04:06:42.597Z,7.20
2019-03-09T04:07:47.158Z,7.30
2019-03-09T04:08:51.852Z,7.30
2019-03-09T04:09:56.195Z,7.30
2019-03-09T04:11:00.644Z,7.40
2019-03-09T04:12:04.861Z,7.30
2019-03-09T04:13:09.060Z,7.40
2019-03-09T04:14:13.338Z,7.30
2019-03-09T04:15:17.682Z,7.30
2019-03-09T04:16:22.079Z,7.30
2019-03-09T04:17:26.372Z,7.40
2019-03-09T04:18:30.700Z,7.40
2019-03-09T04:19:35.016Z,7.40
2019-03-09T04:20:39.316Z,7.40
2019-03-09T04:21:43.763Z,7.30
2019-03-09T04:22:48.161Z,7.30
2019-03-09T04:23:52.432Z,7.30
2019-03-09T04:24:56.691Z,7.30
2019-03-09T04:26:00.958Z,7.40
2019-03-09T04:27:05.695Z,7.40
2019-03-09T04:28:09.980Z,7.40
2019-03-09T04:29:14.164Z,7.30
2019-03-09T04:30:18.433Z,7.40
2019-03-09T04:31:22.760Z,7.40
2019-03-09T04:32:27.167Z,7.30
2019-03-09T04:33:31.517Z,7.40
2019-03-09T04:34:35.706Z,7.40
2019-03-09T04:35:39.914Z,7.30
2019-03-09T04:36:44.111Z,7.30
2019-03-09T04:37:48.407Z,7.30
2019-03-09T04:38:52.735Z,7.40
2019-03-09T04:39:57.021Z,7.40
2019-03-09T04:41:01.220Z,7.40
2019-03-09T04:42:05.471Z,7.40
2019-03-09T04:43:09.628Z,7.40
2019-03-09T04:44:13.808Z,7.40
2019-03-09T04:45:18.088Z,7.40
2019-03-09T04:46:22.254Z,7.40
2019-03-09T04:47:26.551Z,7.40
2019-03-09T04:48:30.784Z,7.50
2019-03-09T04:49:34.919Z,7.50
2019-03-09T04:50:39.119Z,7.50
2019-03-09T04:51:43.413Z,7.50
2019-03-09T04:52:47.531Z,7.50
2019-03-09T04:53:51.800Z,7.40
2019-03-09T04:54:55.941Z,7.40
2019-03-09T04:56:00.142Z,7.40
2019-03-09T04:57:04.424Z,7.30
2019-03-09T04:58:08.553Z,7.40
2019-03-09T04:59:12.835Z,7.40
2019-03-09T05:00:17.268Z,7.40
2019-03-09T05:01:21.460Z,7.40
2019-03-09T05:02:25.771Z,7.40
2019-03-09T05:03:29.986Z,7.50
2019-03-09T05:04:58.942Z,7.50
2019-03-09T05:06:03.482Z,7.50
2019-03-09T05:07:07.764Z,7.50
2019-03-09T05:08:33.731Z,7.50
2019-03-09T05:10:13.481Z,7.50
2019-03-09T05:11:24.260Z,7.50
2019-03-09T05:12:28.515Z,7.50
2019-03-09T05:14:05.408Z,7.50
2019-03-09T05:15:10.733Z,7.50
2019-03-09T05:16:15.032Z,7.50
2019-03-09T05:17:19.361Z,7.50
2019-03-09T05:18:23.672Z,7.50
2019-03-09T05:19:27.980Z,7.60
2019-03-09T05:20:32.299Z,7.60
2019-03-09T05:21:36.599Z,7.70
2019-03-09T05:22:41.145Z,7.70
2019-03-09T05:23:45.405Z,7.70
2019-03-09T05:24:49.665Z,7.70
2019-03-09T05:25:53.979Z,7.70
2019-03-09T05:26:58.163Z,7.60
2019-03-09T05:28:02.431Z,7.60
2019-03-09T05:29:06.709Z,7.60
2019-03-09T05:30:12.693Z,7.70
2019-03-09T05:31:17.037Z,7.70
2019-03-09T05:32:21.299Z,7.80
2019-03-09T05:33:25.662Z,7.80
2019-03-09T05:34:30.025Z,7.80
2019-03-09T05:35:34.306Z,7.80
2019-03-09T05:36:38.652Z,7.80
2019-03-09T05:37:43.492Z,7.80
2019-03-09T05:38:47.937Z,7.80
2019-03-09T05:39:52.105Z,7.80
2019-03-09T05:40:56.328Z,7.80
2019-03-09T05:42:00.591Z,7.80
2019-03-09T05:43:05.273Z,7.80
2019-03-09T05:44:09.567Z,7.80
2019-03-09T05:45:13.844Z,7.90
2019-03-09T05:46:18.165Z,7.80
2019-03-09T05:47:22.467Z,7.80
2019-03-09T05:48:26.867Z,7.80
2019-03-09T05:49:30.999Z,7.80
2019-03-09T05:50:35.274Z,7.80
2019-03-09T05:51:39.554Z,7.80
2019-03-09T05:52:43.893Z,7.80
2019-03-09T05:53:48.163Z,7.80
2019-03-09T05:54:52.467Z,7.80
2019-03-09T05:55:56.715Z,7.80
2019-03-09T05:57:00.875Z,7.80
2019-03-09T05:58:05.093Z,7.80
2019-03-09T05:59:09.386Z,7.80
2019-03-09T06:00:15.625Z,7.80
2019-03-09T06:01:19.825Z,7.80
2019-03-09T06:02:24.016Z,7.80
2019-03-09T06:03:28.345Z,7.80
2019-03-09T06:04:32.604Z,7.90
2019-03-09T06:05:47.718Z,7.90
2019-03-09T06:06:51.909Z,7.90
2019-03-09T06:07:56.187Z,7.90
2019-03-09T06:09:00.401Z,8.00
2019-03-09T06:10:04.769Z,7.90
2019-03-09T06:11:08.956Z,8.00
2019-03-09T06:12:13.209Z,8.00
2019-03-09T06:13:17.401Z,8.00
2019-03-09T06:14:21.536Z,8.00
2019-03-09T06:15:25.729Z,8.00
2019-03-09T06:16:29.908Z,8.00
2019-03-09T06:17:34.219Z,8.10
2019-03-09T06:18:38.383Z,8.10
2019-03-09T06:19:42.637Z,8.10
2019-03-09T06:20:46.935Z,8.00
2019-03-09T06:21:51.209Z,8.10
2019-03-09T06:22:55.407Z,8.00
2019-03-09T06:23:59.665Z,8.10
2019-03-09T06:25:03.986Z,8.10
2019-03-09T06:26:08.435Z,8.10
2019-03-09T06:27:12.728Z,8.20
2019-03-09T06:28:17.027Z,8.20
2019-03-09T06:29:21.357Z,8.20
2019-03-09T06:30:25.573Z,8.20
2019-03-09T06:31:29.901Z,8.30
2019-03-09T06:33:10.183Z,8.30
2019-03-09T06:34:14.535Z,8.30
2019-03-09T06:35:18.983Z,8.30
2019-03-09T06:37:12.241Z,8.30
2019-03-09T06:38:33.655Z,8.30
2019-03-09T06:39:47.123Z,8.30
2019-03-09T06:40:51.359Z,8.30
2019-03-09T06:42:26.878Z,8.30
2019-03-09T06:43:31.187Z,8.30
2019-03-09T06:44:35.481Z,8.30
2019-03-09T06:45:39.811Z,8.30
2019-03-09T06:46:43.977Z,8.30
2019-03-09T06:47:48.299Z,8.20
2019-03-09T06:48:52.553Z,8.20
2019-03-09T06:49:56.866Z,8.20
2019-03-09T06:51:01.093Z,8.20
2019-03-09T06:52:05.411Z,8.20
2019-03-09T06:53:09.651Z,8.20
2019-03-09T06:54:13.925Z,8.20
2019-03-09T06:55:18.296Z,8.10
2019-03-09T06:56:22.569Z,8.10
2019-03-09T06:57:26.847Z,8.10
2019-03-09T06:58:31.163Z,8.10
2019-03-09T06:59:35.451Z,8.10
2019-03-09T07:00:41.091Z,8.10
2019-03-09T07:01:45.309Z,8.10
2019-03-09T07:02:49.609Z,8.10
2019-03-09T07:03:53.934Z,8.00
2019-03-09T07:04:58.221Z,8.00
2019-03-09T07:06:02.657Z,8.00
2019-03-09T07:07:06.947Z,8.00
2019-03-09T07:08:11.266Z,8.00
2019-03-09T07:09:15.641Z,8.00
2019-03-09T07:10:19.899Z,8.00
2019-03-09T07:11:24.140Z,8.00
2019-03-09T07:12:28.473Z,8.00
2019-03-09T07:13:32.617Z,8.00
2019-03-09T07:15:20.053Z,8.00
2019-03-09T07:16:24.303Z,8.00
2019-03-09T07:17:28.679Z,8.00
2019-03-09T07:18:35.647Z,8.00
2019-03-09T07:19:39.931Z,8.00
2019-03-09T07:20:44.140Z,8.10
2019-03-09T07:21:48.386Z,8.10
2019-03-09T07:22:52.669Z,8.10
2019-03-09T07:23:56.845Z,8.10
2019-03-09T07:25:01.175Z,8.00
2019-03-09T07:26:24.888Z,8.00
2019-03-09T07:27:29.154Z,8.00
2019-03-09T07:28:33.492Z,8.00
2019-03-09T07:29:37.610Z,8.00
2019-03-09T07:30:41.847Z,8.00
2019-03-09T07:31:46.158Z,8.00
2019-03-09T07:32:52.518Z,8.00
2019-03-09T07:34:21.870Z,8.10
2019-03-09T07:35:26.183Z,8.10
2019-03-09T07:36:30.513Z,8.10
2019-03-09T07:37:34.839Z,8.10
2019-03-09T07:38:39.172Z,8.20
2019-03-09T07:39:43.497Z,8.20
2019-03-09T07:40:47.648Z,8.20
2019-03-09T07:41:51.815Z,8.20
2019-03-09T07:42:56.014Z,8.20
2019-03-09T07:44:00.354Z,8.20
2019-03-09T07:45:05.067Z,8.20
2019-03-09T07:46:09.453Z,8.20
2019-03-09T07:47:13.725Z,8.30
2019-03-09T07:48:17.949Z,8.30
2019-03-09T07:49:22.200Z,8.30
2019-03-09T07:50:26.387Z,8.30
2019-03-09T07:51:30.640Z,8.30
2019-03-09T07:52:36.571Z,8.30
2019-03-09T07:53:40.961Z,8.40
2019-03-09T07:54:45.316Z,8.40
2019-03-09T07:55:49.602Z,8.30
2019-03-09T07:56:53.891Z,8.40
2019-03-09T07:58:01.093Z,8.40
2019-03-09T07:59:24.331Z,8.40
2019-03-09T08:00:28.811Z,8.40
2019-03-09T08:01:33.147Z,8.40
2019-03-09T08:02:37.432Z,8.40
2019-03-09T08:03:41.609Z,8.40
2019-03-09T08:04:46.894Z,8.40
2019-03-09T08:05:51.167Z,8.40
2019-03-09T08:06:56.153Z,8.40
2019-03-09T08:08:00.485Z,8.50
2019-03-09T08:09:05.981Z,8.50
2019-03-09T08:10:13.687Z,8.40
2019-03-09T08:11:19.078Z,8.40
2019-03-09T08:12:24.134Z,8.50
2019-03-09T08:13:28.705Z,8.50
2019-03-09T08:14:33.345Z,8.50
2019-03-09T08:15:37.796Z,8.50
2019-03-09T08:16:42.172Z,8.50
2019-03-09T08:17:46.892Z,8.50
2019-03-09T08:18:51.127Z,8.50
2019-03-09T08:19:55.436Z,8.50
2019-03-09T08:20:59.832Z,8.50
2019-03-09T08:22:04.224Z,8.50
2019-03-09T08:23:08.582Z,8.40
2019-03-09T08:24:12.895Z,8.40
2019-03-09T08:25:17.568Z,8.40
2019-03-09T08:26:21.758Z,8.50
2019-03-09T08:27:26.029Z,8.50
2019-03-09T08:28:30.497Z,8.50
2019-03-09T08:29:34.746Z,8.50
2019-03-09T08:30:39.076Z,8.50
2019-03-09T08:31:43.436Z,8.50
2019-03-09T08:32:47.778Z,8.60
2019-03-09T08:33:52.090Z,8.60
2019-03-09T08:34:56.349Z,8.70
2019-03-09T08:36:00.629Z,8.70
2019-03-09T08:37:04.851Z,8.70
2019-03-09T08:38:09.033Z,8.70
2019-03-09T08:39:13.383Z,8.70
2019-03-09T08:40:18.106Z,8.70
2019-03-09T08:41:22.426Z,8.70
2019-03-09T08:42:26.731Z,8.80
2019-03-09T08:43:31.033Z,8.80
2019-03-09T08:44:35.289Z,8.80
2019-03-09T08:45:39.665Z,8.80
2019-03-09T08:46:44.021Z,8.80
2019-03-09T08:47:52.071Z,8.80
2019-03-09T08:48:55.612Z,8.80
2019-03-09T08:49:59.905Z,8.80
2019-03-09T08:51:04.233Z,8.70
2019-03-09T08:52:08.937Z,8.80
2019-03-09T08:53:13.102Z,8.80
2019-03-09T08:54:17.531Z,8.80
2019-03-09T08:55:21.863Z,8.90
2019-03-09T08:56:26.108Z,8.90
2019-03-09T08:57:30.321Z,8.90
2019-03-09T08:58:34.514Z,8.90
2019-03-09T08:59:38.746Z,8.80
2019-03-09T09:00:42.965Z,8.80
2019-03-09T09:01:47.213Z,8.70
2019-03-09T09:02:51.520Z,8.70
2019-03-09T09:03:55.825Z,8.70
2019-03-09T09:05:00.317Z,8.70
2019-03-09T09:06:04.733Z,8.70
2019-03-09T09:07:09.147Z,8.70
2019-03-09T09:08:13.447Z,8.70
2019-03-09T09:09:17.693Z,8.60
2019-03-09T09:10:21.926Z,8.60
2019-03-09T09:11:26.254Z,8.60
2019-03-09T09:12:30.569Z,8.60
2019-03-09T09:13:34.876Z,8.60
2019-03-09T09:14:39.167Z,8.60
2019-03-09T09:15:43.368Z,8.70
2019-03-09T09:16:47.694Z,8.80
2019-03-09T09:17:51.937Z,8.80
2019-03-09T09:18:56.289Z,8.90
2019-03-09T09:20:00.576Z,8.80
2019-03-09T09:21:04.915Z,8.80
2019-03-09T09:22:09.047Z,8.80
2019-03-09T09:23:13.403Z,8.80
2019-03-09T09:24:17.717Z,8.80
2019-03-09T09:25:22.033Z,8.80
2019-03-09T09:26:26.435Z,8.90
2019-03-09T09:27:30.958Z,8.80
2019-03-09T09:28:35.142Z,8.90
2019-03-09T09:29:39.420Z,9.00
2019-03-09T09:30:44.055Z,9.00
2019-03-09T09:31:48.643Z,9.10
2019-03-09T09:32:52.957Z,9.10
2019-03-09T09:33:58.454Z,9.10
2019-03-09T09:35:03.004Z,9.10
2019-03-09T09:36:07.203Z,9.00
2019-03-09T09:37:11.481Z,9.00
2019-03-09T09:38:15.667Z,9.10
2019-03-09T09:39:20.131Z,9.10
2019-03-09T09:40:24.360Z,9.10
2019-03-09T09:41:28.589Z,9.10
2019-03-09T09:42:32.891Z,9.20
2019-03-09T09:43:37.163Z,9.20
2019-03-09T09:44:41.473Z,9.20
2019-03-09T09:45:45.788Z,9.10
2019-03-09T09:46:49.951Z,9.10
2019-03-09T09:47:54.267Z,9.10
2019-03-09T09:48:58.561Z,9.10
2019-03-09T09:50:02.841Z,9.10
2019-03-09T09:51:07.199Z,9.10
2019-03-09T09:52:11.451Z,9.20
2019-03-09T09:53:15.779Z,9.20
2019-03-09T09:54:20.114Z,9.20
2019-03-09T09:55:24.435Z,9.20
2019-03-09T09:56:28.738Z,9.30
2019-03-09T09:57:32.965Z,9.30
2019-03-09T09:58:37.317Z,9.20
2019-03-09T09:59:41.536Z,9.30
2019-03-09T10:00:45.772Z,9.30
2019-03-09T10:01:50.039Z,9.20
2019-03-09T10:02:54.347Z,9.30
2019-03-09T10:03:58.712Z,9.30
2019-03-09T10:05:02.993Z,9.30
2019-03-09T10:06:07.270Z,9.30
2019-03-09T10:07:11.580Z,9.30
2019-03-09T10:08:16.130Z,9.30
2019-03-09T10:09:20.328Z,9.30
2019-03-09T10:10:24.681Z,9.30
2019-03-09T10:11:29.025Z,9.30
2019-03-09T10:12:33.285Z,9.30
2019-03-09T10:13:37.524Z,9.30
2019-03-09T10:14:41.827Z,9.30
2019-03-09T10:15:46.146Z,9.20
2019-03-09T10:16:50.433Z,9.20
2019-03-09T10:17:54.647Z,9.30
2019-03-09T10:18:59.161Z,9.40
2019-03-09T10:20:03.540Z,9.40
2019-03-09T10:21:07.877Z,9.40
2019-03-09T10:22:12.080Z,9.40
2019-03-09T10:23:16.298Z,9.40
2019-03-09T10:24:20.600Z,9.40
2019-03-09T10:25:24.941Z,9.40
2019-03-09T10:26:29.246Z,9.40
2019-03-09T10:27:33.489Z,9.40
2019-03-09T10:28:37.801Z,9.40
2019-03-09T10:29:42.059Z,9.40
2019-03-09T10:30:46.368Z,9.40
2019-03-09T10:31:50.681Z,9.40
2019-03-09T10:32:54.999Z,9.40
2019-03-09T10:33:59.301Z,9.40
2019-03-09T10:35:03.619Z,9.30
2019-03-09T10:36:08.145Z,9.30
2019-03-09T10:37:12.455Z,9.30
2019-03-09T10:38:16.663Z,9.30
2019-03-09T10:39:21.017Z,9.30
2019-03-09T10:40:25.321Z,9.30
2019-03-09T10:41:29.608Z,9.40
2019-03-09T10:42:33.917Z,9.40
2019-03-09T10:43:38.166Z,9.50
2019-03-09T10:44:42.379Z,9.60
2019-03-09T10:45:46.611Z,9.70
2019-03-09T10:46:50.917Z,9.70
2019-03-09T10:47:55.227Z,9.70
2019-03-09T10:48:59.859Z,9.70
2019-03-09T10:50:04.684Z,9.70
2019-03-09T10:51:08.979Z,9.70
2019-03-09T10:52:13.246Z,9.70
2019-03-09T10:53:17.539Z,9.70
2019-03-09T10:54:21.932Z,9.70
2019-03-09T10:55:26.299Z,9.70
2019-03-09T10:56:30.790Z,9.80
2019-03-09T10:57:35.187Z,9.70
2019-03-09T10:58:39.472Z,9.80
2019-03-09T10:59:43.820Z,9.80
2019-03-09T11:00:48.093Z,9.80
2019-03-09T11:01:52.395Z,9.80
2019-03-09T11:02:56.734Z,9.80
2019-03-09T11:04:01.057Z,9.80
2019-03-09T11:05:05.627Z,9.80
2019-03-09T11:06:10.239Z,9.80
2019-03-09T11:07:14.493Z,9.70
2019-03-09T11:08:18.731Z,9.70
2019-03-09T11:09:23.029Z,9.70
2019-03-09T11:10:27.391Z,9.80
2019-03-09T11:11:31.575Z,9.80
2019-03-09T11:12:35.855Z,9.80
2019-03-09T11:13:40.073Z,9.80
2019-03-09T11:14:44.277Z,9.80
2019-03-09T11:15:48.588Z,9.80
2019-03-09T11:16:52.877Z,9.80
2019-03-09T11:17:57.126Z,9.80
2019-03-09T11:19:01.414Z,9.80
2019-03-09T11:20:06.265Z,9.80
2019-03-09T11:21:10.554Z,9.80
2019-03-09T11:22:14.845Z,9.80
2019-03-09T11:23:19.115Z,9.80
2019-03-09T11:24:23.470Z,9.80
2019-03-09T11:25:27.759Z,9.80
2019-03-09T11:26:31.931Z,9.80
2019-03-09T11:27:36.106Z,9.80
2019-03-09T11:28:40.444Z,9.80
2019-03-09T11:29:44.723Z,9.80
2019-03-09T11:30:49.034Z,9.80
2019-03-09T11:31:53.657Z,9.80
2019-03-09T11:32:57.951Z,9.90
2019-03-09T11:34:02.293Z,9.90
2019-03-09T11:35:06.738Z,9.90
2019-03-09T11:36:10.951Z,9.90
2019-03-09T11:37:15.170Z,9.90
2019-03-09T11:38:19.425Z,9.90
2019-03-09T11:39:23.578Z,9.90
2019-03-09T11:40:27.818Z,9.90
2019-03-09T11:41:32.073Z,9.90
2019-03-09T11:42:36.383Z,10.00
2019-03-09T11:43:40.662Z,10.00
2019-03-09T11:44:44.942Z,10.00
2019-03-09T11:45:49.265Z,10.00
2019-03-09T11:46:53.505Z,10.00
2019-03-09T11:47:57.771Z,10.00
2019-03-09T11:49:01.983Z,10.00
2019-03-09T11:50:07.555Z,10.00
2019-03-09T11:51:12.787Z,10.00
2019-03-09T11:52:20.381Z,10.10
2019-03-09T11:53:23.022Z,10.10
2019-03-09T11:54:27.227Z,10.10
2019-03-09T11:55:31.508Z,10.10
2019-03-09T11:56:35.798Z,10.10
2019-03-09T11:57:39.981Z,10.10
2019-03-09T11:58:44.143Z,10.10
2019-03-09T11:59:48.423Z,10.10
2019-03-09T12:00:52.587Z,10.20
2019-03-09T12:01:56.813Z,10.20
2019-03-09T12:03:00.997Z,10.20
2019-03-09T12:04:05.281Z,10.30
2019-03-09T12:05:09.977Z,10.30
2019-03-09T12:06:14.191Z,10.40
2019-03-09T12:07:18.429Z,10.40
2019-03-09T12:08:22.761Z,10.50
2019-03-09T12:09:26.897Z,10.50
2019-03-09T12:10:31.211Z,10.50
2019-03-09T12:11:35.467Z,10.50
2019-03-09T12:12:39.740Z,10.50
2019-03-09T12:13:44.061Z,10.60
2019-03-09T12:14:48.208Z,10.60
2019-03-09T12:15:52.646Z,10.60
2019-03-09T12:16:56.838Z,10.60
2019-03-09T12:18:01.049Z,10.70
2019-03-09T12:19:05.340Z,10.70
2019-03-09T12:20:09.957Z,10.70
2019-03-09T12:21:14.271Z,10.70
2019-03-09T12:22:18.556Z,10.70
2019-03-09T12:23:24.547Z,10.70
2019-03-09T12:24:28.950Z,10.80
2019-03-09T12:25:33.121Z,10.90
2019-03-09T12:26:37.666Z,10.90
2019-03-09T12:27:42.776Z,11.00
2019-03-09T12:28:47.155Z,11.00
2019-03-09T12:29:51.399Z,11.00
2019-03-09T12:30:55.721Z,11.10
2019-03-09T12:32:00.050Z,11.10
2019-03-09T12:33:04.348Z,11.10
2019-03-09T12:34:08.744Z,11.10
2019-03-09T12:35:13.343Z,11.10
2019-03-09T12:36:17.539Z,11.00
2019-03-09T12:37:21.885Z,11.00
2019-03-09T12:38:26.208Z,10.90
2019-03-09T12:39:30.559Z,11.00
2019-03-09T12:40:34.852Z,10.90
2019-03-09T12:41:39.111Z,10.90
2019-03-09T12:42:43.434Z,10.90
2019-03-09T12:43:47.739Z,10.90
2019-03-09T12:44:52.109Z,10.90
2019-03-09T12:45:56.404Z,10.80
2019-03-09T12:47:00.680Z,10.80
2019-03-09T12:48:05.015Z,10.80
2019-03-09T12:49:09.279Z,10.80
2019-03-09T12:50:15.413Z,10.80
2019-03-09T12:51:19.813Z,10.70
2019-03-09T12:52:24.065Z,10.70
2019-03-09T12:53:28.383Z,10.70
2019-03-09T12:54:32.581Z,10.70
2019-03-09T12:55:36.763Z,10.80
2019-03-09T12:56:41.073Z,10.80
2019-03-09T12:57:45.325Z,10.80
2019-03-09T12:58:49.585Z,10.90
2019-03-09T12:59:53.776Z,10.90
2019-03-09T13:00:58.050Z,10.90
2019-03-09T13:02:02.398Z,10.90
2019-03-09T13:03:06.691Z,10.90
2019-03-09T13:04:12.453Z,11.00
2019-03-09T13:05:17.116Z,11.10
2019-03-09T13:06:21.338Z,11.10
2019-03-09T13:07:25.539Z,11.20
2019-03-09T13:08:29.742Z,11.20
2019-03-09T13:09:34.031Z,11.30
2019-03-09T13:10:38.323Z,11.20
2019-03-09T13:11:42.645Z,11.20
2019-03-09T13:12:47.176Z,11.20
2019-03-09T13:13:51.512Z,11.20
2019-03-09T13:14:55.843Z,11.10
2019-03-09T13:16:00.155Z,11.10
2019-03-09T13:17:04.500Z,11.10
2019-03-09T13:18:08.844Z,11.10
2019-03-09T13:19:13.158Z,11.10
2019-03-09T13:20:17.358Z,11.00
2019-03-09T13:21:21.565Z,11.00
2019-03-09T13:22:25.867Z,11.00
2019-03-09T13:23:30.199Z,11.00
2019-03-09T13:24:34.359Z,11.00
2019-03-09T13:25:38.823Z,11.00
2019-03-09T13:26:43.196Z,10.90
2019-03-09T13:27:47.472Z,10.90
2019-03-09T13:28:51.967Z,10.90
2019-03-09T13:29:56.229Z,10.90
2019-03-09T13:31:00.616Z,10.90
2019-03-09T13:32:04.951Z,10.90
2019-03-09T13:33:09.304Z,10.90
2019-03-09T13:34:13.695Z,10.90
2019-03-09T13:35:17.951Z,10.90
2019-03-09T13:36:22.514Z,10.90
2019-03-09T13:37:26.851Z,10.90
2019-03-09T13:38:31.023Z,10.90
2019-03-09T13:39:35.290Z,10.90
2019-03-09T13:40:39.655Z,10.80
2019-03-09T13:41:43.936Z,10.80
2019-03-09T13:42:48.268Z,10.90
2019-03-09T13:43:52.493Z,10.90
2019-03-09T13:44:56.790Z,11.00
2019-03-09T13:46:01.078Z,11.00
2019-03-09T13:47:05.278Z,11.00
2019-03-09T13:48:09.542Z,11.00
2019-03-09T13:49:13.848Z,11.00
2019-03-09T13:50:18.131Z,11.10
2019-03-09T13:51:22.466Z,11.10
2019-03-09T13:52:26.717Z,11.10
2019-03-09T13:53:31.024Z,11.20
2019-03-09T13:54:35.325Z,11.30
2019-03-09T13:55:39.617Z,11.40
2019-03-09T13:56:43.884Z,11.50
2019-03-09T13:57:48.184Z,11.60
2019-03-09T13:58:52.425Z,11.70
2019-03-09T13:59:56.694Z,11.70
2019-03-09T14:01:01.005Z,11.80
2019-03-09T14:02:05.297Z,11.90
2019-03-09T14:03:09.601Z,11.90
2019-03-09T14:04:13.987Z,11.80
2019-03-09T14:05:18.183Z,11.80
2019-03-09T14:06:22.783Z,11.80
2019-03-09T14:07:27.232Z,11.80
2019-03-09T14:08:31.531Z,11.70
2019-03-09T14:09:36.396Z,11.70
2019-03-09T14:10:40.717Z,11.70
2019-03-09T14:11:45.007Z,11.70
2019-03-09T14:12:49.304Z,11.70
2019-03-09T14:13:53.604Z,11.60
2019-03-09T14:14:57.897Z,11.60
2019-03-09T14:16:02.165Z,11.60
2019-03-09T14:17:06.440Z,11.50
2019-03-09T14:18:10.678Z,11.50
2019-03-09T14:19:14.918Z,11.50
2019-03-09T14:20:19.092Z,11.40